Time;durP1;ratioP1;P1;durP2;ratioP2;P2;SDS_P1;SDS_P2;PMS_P1;PMS_P2;Temp;Humidity;BMP_temperature;BMP_pressure;BME280_temperature;BME280_humidity;BME280_pressure;Samples;Min_cycle;Max_cycle;Signal;HPM_P1;HPM_P2
2022/01/30 00:01:19;;;;;;;;;;;18.90;43.80;;;;;;5085717;27;42985;-74
2022/01/30 00:03:44;;;;;;;;;;;18.90;43.90;;;;;;5082550;27;43527;-74
2022/01/30 00:06:10;;;;;;;;;;;18.90;43.80;;;;;;5081132;27;43159;-74
2022/01/30 00:08:36;;;;;;;;;;;18.90;43.90;;;;;;5077631;27;43946;-74
2022/01/30 00:11:10;;;;;;;;;;;18.90;43.90;;;;;;5076270;27;43061;-74
2022/01/30 00:13:35;;;;;;;;;;;18.90;44.00;;;;;;5076527;27;42972;-74
2022/01/30 00:16:05;;;;;;;;;;;18.90;44.00;;;;;;5081498;27;42822;-74
2022/01/30 00:18:49;;;;;;;;;;;18.90;43.90;;;;;;5086261;27;42994;-71
2022/01/30 00:24:43;;;;;;;;;;;18.90;43.90;;;;;;5084594;27;43213;-73
2022/01/30 00:26:48;;;;;;;;;;;18.90;43.80;;;;;;5081151;28;43091;-74
2022/01/30 00:29:13;;;;;;;;;;;18.90;44.10;;;;;;5084697;27;43409;-79
2022/01/30 00:31:39;;;;;;;;;;;19.00;44.10;;;;;;5084586;27;43007;-75
2022/01/30 00:34:05;;;;;;;;;;;19.00;44.50;;;;;;5085348;27;43321;-75
2022/01/30 00:36:31;;;;;;;;;;;19.00;44.50;;;;;;5085534;27;43021;-75
2022/01/30 00:38:57;;;;;;;;;;;19.00;44.70;;;;;;5073168;27;43341;-75
2022/01/30 00:41:23;;;;;;;;;;;19.00;44.70;;;;;;5065230;28;43187;-75
2022/01/30 00:43:48;;;;;;;;;;;19.00;44.90;;;;;;5065470;28;42940;-75
2022/01/30 00:46:14;;;;;;;;;;;18.90;44.90;;;;;;5064852;28;43115;-75
2022/01/30 00:48:40;;;;;;;;;;;19.00;45.10;;;;;;5065858;28;43015;-76
2022/01/30 00:51:05;;;;;;;;;;;19.00;45.20;;;;;;5076466;28;43114;-76
2022/01/30 00:53:31;;;;;;;;;;;18.90;45.20;;;;;;5084719;27;43122;-75
2022/01/30 00:55:56;;;;;;;;;;;19.00;45.30;;;;;;5083288;27;43133;-75
2022/01/30 00:58:22;;;;;;;;;;;19.00;45.50;;;;;;5084733;28;44528;-74
2022/01/30 01:00:47;;;;;;;;;;;19.00;45.50;;;;;;5085075;27;42946;-75
2022/01/30 01:03:13;;;;;;;;;;;19.00;45.50;;;;;;5085546;28;43043;-75
2022/01/30 01:05:39;;;;;;;;;;;19.00;45.70;;;;;;5086017;27;42892;-75
2022/01/30 01:08:17;;;;;;;;;;;19.00;45.70;;;;;;5085945;28;43743;-75
2022/01/30 01:10:49;;;;;;;;;;;19.00;45.90;;;;;;5085561;27;43022;-75
2022/01/30 01:23:54;;;;;;;;;;;19.00;46.50;;;;;;5085673;27;43031;-75
2022/01/30 01:26:22;;;;;;;;;;;19.00;46.40;;;;;;5085773;27;42962;-75
2022/01/30 01:28:47;;;;;;;;;;;19.00;46.50;;;;;;5077331;27;44839;-75
2022/01/30 01:31:13;;;;;;;;;;;19.00;47.30;;;;;;5085276;28;42962;-75
2022/01/30 01:34:03;;;;;;;;;;;19.00;46.70;;;;;;5085576;27;43584;-75
2022/01/30 01:36:25;;;;;;;;;;;19.00;46.90;;;;;;5085352;27;43030;-75
2022/01/30 01:38:50;;;;;;;;;;;19.00;46.80;;;;;;5085600;27;43276;-76
2022/01/30 01:41:19;;;;;;;;;;;19.00;47.10;;;;;;5085409;27;43143;-73
2022/01/30 01:43:45;;;;;;;;;;;19.00;47.20;;;;;;5084734;27;42925;-74
2022/01/30 01:46:18;;;;;;;;;;;19.00;47.30;;;;;;5084985;27;42980;-76
2022/01/30 01:48:45;;;;;;;;;;;19.00;47.30;;;;;;5085008;28;42924;-75
2022/01/30 01:51:17;;;;;;;;;;;19.00;47.40;;;;;;5085284;27;42813;-75
2022/01/30 01:53:43;;;;;;;;;;;19.00;47.30;;;;;;5085008;28;43323;-75
2022/01/30 01:56:08;;;;;;;;;;;19.10;47.40;;;;;;5083578;28;43086;-76
2022/01/30 01:58:34;;;;;;;;;;;19.10;47.40;;;;;;5085124;27;43931;-77
2022/01/30 02:01:02;;;;;;;;;;;19.10;47.40;;;;;;5085087;27;42884;-76
2022/01/30 02:03:27;;;;;;;;;;;19.10;47.50;;;;;;5085271;27;43376;-76
2022/01/30 02:05:57;;;;;;;;;;;19.00;47.40;;;;;;5084818;28;42945;-75
2022/01/30 02:08:35;;;;;;;;;;;19.00;47.40;;;;;;5084804;28;43560;-75
2022/01/30 02:11:15;;;;;;;;;;;19.10;47.50;;;;;;5084871;27;42973;-76
2022/01/30 02:24:45;;;;;;;;;;;19.00;47.80;;;;;;5084510;28;43020;-76
2022/01/30 02:27:20;;;;;;;;;;;19.10;48.10;;;;;;5084565;28;42968;-76
2022/01/30 02:29:46;;;;;;;;;;;19.10;48.30;;;;;;5084187;27;44655;-77
2022/01/30 02:32:12;;;;;;;;;;;19.10;48.50;;;;;;5083893;27;43003;-75
2022/01/30 02:34:37;;;;;;;;;;;19.10;48.70;;;;;;5084509;27;42912;-76
2022/01/30 02:37:04;;;;;;;;;;;19.10;48.90;;;;;;5084770;27;42870;-77
2022/01/30 02:39:29;;;;;;;;;;;19.00;48.90;;;;;;5083882;27;43031;-77
2022/01/30 02:41:55;;;;;;;;;;;19.00;49.20;;;;;;5083813;28;43000;-76
2022/01/30 02:44:45;;;;;;;;;;;19.00;49.30;;;;;;5084067;27;43495;-75
2022/01/30 02:47:21;;;;;;;;;;;19.00;49.40;;;;;;5083307;27;43153;-76
2022/01/30 02:52:32;;;;;;;;;;;19.00;49.80;;;;;;5084960;28;42948;-74
2022/01/30 02:54:57;;;;;;;;;;;19.10;50.10;;;;;;5082958;27;44674;-76
2022/01/30 02:57:23;;;;;;;;;;;19.00;50.30;;;;;;5088181;28;43102;-78
2022/01/30 02:59:50;;;;;;;;;;;19.00;50.40;;;;;;5087482;27;42998;-79
2022/01/30 03:02:16;;;;;;;;;;;19.00;50.50;;;;;;5087237;27;42904;-76
2022/01/30 03:04:41;;;;;;;;;;;19.00;50.50;;;;;;5087726;27;43209;-76
2022/01/30 03:07:07;;;;;;;;;;;19.00;50.50;;;;;;5087581;27;42961;-75
2022/01/30 03:09:33;;;;;;;;;;;19.00;50.70;;;;;;5086865;27;43032;-76
2022/01/30 03:11:58;;;;;;;;;;;19.00;50.70;;;;;;5087288;28;43056;-77
2022/01/30 03:14:24;;;;;;;;;;;19.00;50.80;;;;;;5087460;27;43782;-77
2022/01/30 03:16:49;;;;;;;;;;;19.00;50.80;;;;;;5087308;27;42994;-76
2022/01/30 03:19:15;;;;;;;;;;;19.00;50.70;;;;;;5087104;28;42908;-75
2022/01/30 03:21:40;;;;;;;;;;;19.00;50.70;;;;;;5087077;27;43064;-76
2022/01/30 03:24:06;;;;;;;;;;;19.00;50.70;;;;;;5087515;27;42955;-76
2022/01/30 03:26:37;;;;;;;;;;;18.90;50.70;;;;;;5087397;27;42980;-76
2022/01/30 03:29:06;;;;;;;;;;;19.00;50.70;;;;;;5085638;28;44081;-76
2022/01/30 03:31:32;;;;;;;;;;;19.00;51.00;;;;;;5087098;27;42873;-76
2022/01/30 03:33:58;;;;;;;;;;;19.00;51.00;;;;;;5086746;27;43001;-79
2022/01/30 03:36:23;;;;;;;;;;;19.00;51.00;;;;;;5087085;27;43147;-76
2022/01/30 03:38:49;;;;;;;;;;;19.00;51.00;;;;;;5086617;27;43592;-74
2022/01/30 03:41:14;;;;;;;;;;;19.00;51.10;;;;;;5086619;27;42834;-75
2022/01/30 03:43:40;;;;;;;;;;;19.00;51.10;;;;;;5086594;28;42885;-76
2022/01/30 03:46:06;;;;;;;;;;;19.00;51.10;;;;;;5086977;27;43093;-76
2022/01/30 03:48:31;;;;;;;;;;;19.00;51.30;;;;;;5077934;27;43893;-75
2022/01/30 03:50:57;;;;;;;;;;;19.00;51.40;;;;;;5086600;27;43104;-76
2022/01/30 03:53:22;;;;;;;;;;;19.00;51.30;;;;;;5086603;28;43651;-75
2022/01/30 03:55:48;;;;;;;;;;;19.00;51.30;;;;;;5086717;28;43000;-76
2022/01/30 03:58:14;;;;;;;;;;;19.00;51.50;;;;;;5086518;28;43019;-75
2022/01/30 04:00:40;;;;;;;;;;;19.00;51.40;;;;;;5087123;27;42909;-75
2022/01/30 04:03:05;;;;;;;;;;;19.00;51.50;;;;;;5086931;28;43025;-76
2022/01/30 04:05:31;;;;;;;;;;;19.00;51.50;;;;;;5086883;28;42964;-75
2022/01/30 04:08:00;;;;;;;;;;;19.00;51.50;;;;;;5086447;27;43634;-76
2022/01/30 04:10:26;;;;;;;;;;;19.00;51.60;;;;;;5086639;27;42942;-74
2022/01/30 04:12:51;;;;;;;;;;;19.00;51.50;;;;;;5086695;27;42935;-76
2022/01/30 04:15:17;;;;;;;;;;;19.00;51.50;;;;;;5086535;27;42782;-75
2022/01/30 04:17:43;;;;;;;;;;;19.00;51.50;;;;;;5086120;27;43416;-76
2022/01/30 04:20:08;;;;;;;;;;;19.00;51.60;;;;;;5086671;27;43032;-75
2022/01/30 04:22:34;;;;;;;;;;;19.00;51.50;;;;;;5086171;27;42894;-76
2022/01/30 04:25:00;;;;;;;;;;;18.90;51.50;;;;;;5086900;27;42863;-76
2022/01/30 04:27:26;;;;;;;;;;;18.90;51.40;;;;;;5086383;27;42843;-76
2022/01/30 04:29:52;;;;;;;;;;;19.00;51.40;;;;;;5086690;28;42882;-76
2022/01/30 04:32:17;;;;;;;;;;;18.90;51.30;;;;;;5085703;27;43376;-75
2022/01/30 04:34:46;;;;;;;;;;;18.90;51.30;;;;;;5086103;27;42790;-76
2022/01/30 04:37:23;;;;;;;;;;;18.90;51.30;;;;;;5086514;28;43246;-78
2022/01/30 04:40:31;;;;;;;;;;;18.90;51.40;;;;;;5086008;27;42878;-75
2022/01/30 05:07:47;;;;;;;;;;;18.90;51.70;;;;;;5084965;27;42951;-78
2022/01/30 05:09:42;;;;;;;;;;;18.90;51.70;;;;;;5080156;28;43133;-77
2022/01/30 05:12:08;;;;;;;;;;;18.90;52.20;;;;;;5085718;27;42967;-75
2022/01/30 05:14:35;;;;;;;;;;;18.90;51.60;;;;;;5085704;27;43694;-76
2022/01/30 05:17:03;;;;;;;;;;;18.90;51.60;;;;;;5085550;27;42756;-75
2022/01/30 05:19:29;;;;;;;;;;;18.90;51.60;;;;;;5085083;27;42923;-77
2022/01/30 05:21:54;;;;;;;;;;;18.90;51.50;;;;;;5085619;27;42962;-76
2022/01/30 05:24:20;;;;;;;;;;;18.90;51.40;;;;;;5085585;27;43403;-76
2022/01/30 05:26:45;;;;;;;;;;;18.90;51.40;;;;;;5085695;27;42927;-75
2022/01/30 05:29:11;;;;;;;;;;;18.90;51.50;;;;;;5085264;28;42847;-76
2022/01/30 05:31:37;;;;;;;;;;;18.90;51.60;;;;;;5085657;27;42956;-75
2022/01/30 05:34:03;;;;;;;;;;;18.90;51.40;;;;;;5085160;27;43143;-78
2022/01/30 05:36:29;;;;;;;;;;;18.90;51.50;;;;;;5084660;27;43014;-76
2022/01/30 05:38:55;;;;;;;;;;;18.90;51.10;;;;;;5084395;27;42935;-77
2022/01/30 05:41:21;;;;;;;;;;;18.90;51.60;;;;;;5083864;28;43681;-76
2022/01/30 05:43:50;;;;;;;;;;;18.90;51.20;;;;;;5084929;27;43405;-76
2022/01/30 05:46:28;;;;;;;;;;;18.90;51.20;;;;;;5085316;27;43214;-76
2022/01/30 05:48:53;;;;;;;;;;;18.90;51.20;;;;;;5085178;27;43669;-76
2022/01/30 05:51:19;;;;;;;;;;;18.90;51.50;;;;;;5084706;27;42924;-77
2022/01/30 05:53:44;;;;;;;;;;;18.90;51.20;;;;;;5084617;28;43720;-76
2022/01/30 05:56:11;;;;;;;;;;;18.90;52.00;;;;;;5083899;28;43023;-76
2022/01/30 05:58:37;;;;;;;;;;;18.90;51.20;;;;;;5084555;27;43430;-75
2022/01/30 06:01:02;;;;;;;;;;;18.90;51.30;;;;;;5084382;27;42998;-75
2022/01/30 06:03:29;;;;;;;;;;;19.60;52.80;;;;;;5082732;28;44375;-75
2022/01/30 06:05:55;;;;;;;;;;;18.90;51.80;;;;;;5084704;27;42996;-76
2022/01/30 06:11:05;;;;;;;;;;;18.90;51.40;;;;;;5084763;28;42890;-76
2022/01/30 06:13:31;;;;;;;;;;;18.80;52.10;;;;;;5085028;27;43593;-76
2022/01/30 06:15:57;;;;;;;;;;;18.90;52.90;;;;;;5083208;28;43061;-77
2022/01/30 06:18:22;;;;;;;;;;;18.90;52.40;;;;;;5084746;27;43436;-76
2022/01/30 06:20:48;;;;;;;;;;;18.80;52.20;;;;;;5084587;27;42928;-78
2022/01/30 06:23:13;;;;;;;;;;;18.80;52.80;;;;;;5084259;27;43002;-77
2022/01/30 06:25:39;;;;;;;;;;;18.90;51.70;;;;;;5084748;27;42917;-75
2022/01/30 06:28:04;;;;;;;;;;;16.30;51.30;;;;;;5083490;28;45404;-77
2022/01/30 06:30:30;;;;;;;;;;;18.90;52.00;;;;;;5087545;27;42895;-76
2022/01/30 06:32:56;;;;;;;;;;;18.90;52.10;;;;;;5088228;27;43512;-75
2022/01/30 06:35:21;;;;;;;;;;;21.70;54.50;;;;;;5088137;27;43040;-76
2022/01/30 06:37:47;;;;;;;;;;;18.80;52.30;;;;;;5088025;28;43020;-75
2022/01/30 06:40:12;;;;;;;;;;;18.80;52.60;;;;;;5088217;28;43329;-76
2022/01/30 06:42:38;;;;;;;;;;;16.20;51.80;;;;;;5087978;28;43870;-75
2022/01/30 06:45:04;;;;;;;;;;;18.80;52.50;;;;;;5088264;27;42979;-76
2022/01/30 06:47:30;;;;;;;;;;;18.80;52.60;;;;;;5087687;27;43508;-76
2022/01/30 06:49:55;;;;;;;;;;;18.80;52.20;;;;;;5087790;27;42880;-75
2022/01/30 06:52:21;;;;;;;;;;;18.80;52.30;;;;;;5087930;28;43328;-76
2022/01/30 06:54:46;;;;;;;;;;;18.80;52.30;;;;;;5088490;27;42926;-76
2022/01/30 06:57:12;;;;;;;;;;;18.80;52.10;;;;;;5087473;27;43508;-75
2022/01/30 06:59:38;;;;;;;;;;;18.80;53.60;;;;;;5085925;28;42917;-76
2022/01/30 07:02:04;;;;;;;;;;;18.80;53.40;;;;;;5084298;27;44562;-75
2022/01/30 07:04:30;;;;;;;;;;;18.80;52.50;;;;;;5087053;27;43026;-77
2022/01/30 07:06:56;;;;;;;;;;;18.80;52.60;;;;;;5087457;28;42934;-75
2022/01/30 07:09:21;;;;;;;;;;;18.80;52.60;;;;;;5087601;27;42994;-76
2022/01/30 07:11:47;;;;;;;;;;;18.70;53.20;;;;;;5086171;28;44312;-76
2022/01/30 07:14:12;;;;;;;;;;;18.70;52.50;;;;;;5086887;27;42763;-77
2022/01/30 07:16:38;;;;;;;;;;;18.80;53.20;;;;;;5077370;27;45158;-76
2022/01/30 07:19:03;;;;;;;;;;;18.80;52.50;;;;;;5069730;27;43113;-77
2022/01/30 07:21:29;;;;;;;;;;;18.70;52.40;;;;;;5069294;28;42799;-77
2022/01/30 07:23:54;;;;;;;;;;;18.70;52.40;;;;;;5067322;28;42856;-75
2022/01/30 07:26:20;;;;;;;;;;;18.70;52.50;;;;;;5068060;28;43974;-76
2022/01/30 07:28:45;;;;;;;;;;;18.70;52.40;;;;;;5079325;28;42973;-77
2022/01/30 07:31:11;;;;;;;;;;;18.80;52.40;;;;;;5086218;27;42976;-73
2022/01/30 07:33:40;;;;;;;;;;;18.80;52.10;;;;;;5085804;27;42986;-75
2022/01/30 07:36:06;;;;;;;;;;;18.80;52.40;;;;;;5083577;27;43619;-75
2022/01/30 07:38:32;;;;;;;;;;;18.80;52.30;;;;;;5083167;27;42999;-74
2022/01/30 07:40:57;;;;;;;;;;;18.80;52.40;;;;;;5084560;27;43503;-73
2022/01/30 07:43:23;;;;;;;;;;;18.80;52.30;;;;;;5085185;27;42949;-75
2022/01/30 07:45:49;;;;;;;;;;;18.80;52.30;;;;;;5079733;27;43861;-75
2022/01/30 07:48:15;;;;;;;;;;;18.70;52.30;;;;;;5087613;27;42829;-78
2022/01/30 07:50:41;;;;;;;;;;;18.70;52.20;;;;;;5077808;27;43480;-79
2022/01/30 07:53:06;;;;;;;;;;;18.70;52.00;;;;;;5072761;28;42981;-83
2022/01/30 07:55:32;;;;;;;;;;;18.80;52.10;;;;;;5079425;28;44178;-80
2022/01/30 07:57:57;;;;;;;;;;;18.80;51.60;;;;;;5084543;28;43061;-73
2022/01/30 08:00:23;;;;;;;;;;;18.80;51.30;;;;;;5083044;27;43415;-73
2022/01/30 08:02:50;;;;;;;;;;;18.80;48.50;;;;;;5079975;28;42901;-74
2022/01/30 08:05:15;;;;;;;;;;;18.80;48.60;;;;;;5073803;27;43972;-76
2022/01/30 08:07:41;;;;;;;;;;;18.70;47.90;;;;;;5084966;27;42956;-76
2022/01/30 08:10:06;;;;;;;;;;;18.70;47.70;;;;;;5085396;27;43238;-76
2022/01/30 08:12:32;;;;;;;;;;;18.70;46.60;;;;;;5084766;27;42952;-77
2022/01/30 08:14:57;;;;;;;;;;;18.70;47.10;;;;;;5085278;27;44055;-75
2022/01/30 08:17:23;;;;;;;;;;;18.70;47.40;;;;;;5084324;27;42955;-77
2022/01/30 08:19:50;;;;;;;;;;;18.70;48.50;;;;;;5085829;27;44346;-76
2022/01/30 08:22:16;;;;;;;;;;;18.70;47.00;;;;;;5084081;28;43050;-72
2022/01/30 08:24:42;;;;;;;;;;;18.70;47.30;;;;;;5085665;28;43015;-74
2022/01/30 08:27:07;;;;;;;;;;;18.00;33.30;;;;;;5084804;28;43000;-72
2022/01/30 08:29:33;;;;;;;;;;;17.90;38.10;;;;;;5084366;27;42924;-72
2022/01/30 08:31:59;;;;;;;;;;;18.10;40.40;;;;;;5082385;27;43135;-73
2022/01/30 08:34:25;;;;;;;;;;;18.20;43.00;;;;;;5065369;28;42949;-75
2022/01/30 08:36:50;;;;;;;;;;;18.40;45.50;;;;;;5065745;28;42918;-73
2022/01/30 08:39:16;;;;;;;;;;;18.50;45.60;;;;;;5066505;28;43609;-74
2022/01/30 08:41:42;;;;;;;;;;;18.60;46.70;;;;;;5066410;28;43003;-74
2022/01/30 08:44:07;;;;;;;;;;;18.60;47.20;;;;;;5066405;28;42921;-73
2022/01/30 08:46:33;;;;;;;;;;;18.60;47.40;;;;;;5065670;28;42927;-76
2022/01/30 08:48:58;;;;;;;;;;;18.60;47.80;;;;;;5066406;28;42827;-74
2022/01/30 08:51:24;;;;;;;;;;;18.70;48.00;;;;;;5064713;28;42771;-77
2022/01/30 08:53:49;;;;;;;;;;;18.70;48.10;;;;;;5064612;28;42857;-74
2022/01/30 08:56:15;;;;;;;;;;;18.70;48.30;;;;;;5069508;28;42892;-74
2022/01/30 08:58:41;;;;;;;;;;;18.70;48.00;;;;;;5085811;27;43362;-75
2022/01/30 09:01:08;;;;;;;;;;;18.70;48.50;;;;;;5086378;27;42924;-75
2022/01/30 09:03:34;;;;;;;;;;;18.70;48.00;;;;;;5085059;27;43684;-74
2022/01/30 09:05:59;;;;;;;;;;;18.70;47.50;;;;;;5085884;27;42821;-74
2022/01/30 09:08:25;;;;;;;;;;;18.70;48.00;;;;;;5085450;27;43461;-72
2022/01/30 09:10:50;;;;;;;;;;;18.70;48.80;;;;;;5086060;27;42856;-74
2022/01/30 09:13:16;;;;;;;;;;;18.70;48.90;;;;;;5085830;27;42878;-73
2022/01/30 09:15:42;;;;;;;;;;;18.70;48.50;;;;;;5086384;27;42897;-75
2022/01/30 09:18:10;;;;;;;;;;;18.70;49.20;;;;;;5085679;27;43537;-74
2022/01/30 09:20:37;;;;;;;;;;;18.70;49.30;;;;;;5085800;27;43096;-74
2022/01/30 09:23:02;;;;;;;;;;;18.70;49.40;;;;;;5085803;27;43543;-72
2022/01/30 09:25:28;;;;;;;;;;;18.70;49.40;;;;;;5085542;27;43029;-74
2022/01/30 09:27:53;;;;;;;;;;;18.70;49.70;;;;;;5083999;28;44437;-73
2022/01/30 09:30:19;;;;;;;;;;;18.80;49.80;;;;;;5085567;28;42869;-73
2022/01/30 09:32:45;;;;;;;;;;;18.70;49.60;;;;;;5085926;28;43719;-73
2022/01/30 09:35:10;;;;;;;;;;;18.70;49.90;;;;;;5085581;28;43084;-74
2022/01/30 09:37:36;;;;;;;;;;;18.80;50.00;;;;;;5085448;27;42952;-74
2022/01/30 09:40:02;;;;;;;;;;;18.80;50.00;;;;;;5085379;28;42777;-74
2022/01/30 09:42:28;;;;;;;;;;;18.80;50.10;;;;;;5085084;27;42924;-75
2022/01/30 09:44:54;;;;;;;;;;;18.80;50.70;;;;;;5085490;27;42973;-73
2022/01/30 09:47:19;;;;;;;;;;;18.80;50.30;;;;;;5083529;27;43490;-75
2022/01/30 09:49:49;;;;;;;;;;;18.80;50.30;;;;;;5085903;27;42945;-74
2022/01/30 09:52:15;;;;;;;;;;;18.80;50.20;;;;;;5085256;27;43014;-79
2022/01/30 09:54:40;;;;;;;;;;;18.80;50.40;;;;;;5085150;27;42997;-74
2022/01/30 09:57:06;;;;;;;;;;;18.80;50.50;;;;;;5085078;28;42884;-75
2022/01/30 09:59:31;;;;;;;;;;;18.80;50.60;;;;;;5085413;27;42880;-74
2022/01/30 10:01:57;;;;;;;;;;;19.10;49.90;;;;;;5084735;28;43681;-74
2022/01/30 10:04:22;;;;;;;;;;;19.80;39.90;;;;;;5083233;28;42853;-75
2022/01/30 10:07:01;;;;;;;;;;;20.20;39.40;;;;;;5084354;27;42897;-76
2022/01/30 10:09:30;;;;;;;;;;;20.30;39.40;;;;;;5082992;27;43037;-73
2022/01/30 10:14:53;;;;;;;;;;;20.70;40.00;;;;;;5071168;27;43107;-76
2022/01/30 10:17:24;;;;;;;;;;;20.70;39.70;;;;;;5080137;27;43854;-75
2022/01/30 10:19:58;;;;;;;;;;;20.50;40.00;;;;;;5082622;27;42974;-74
2022/01/30 10:22:24;;;;;;;;;;;19.90;40.80;;;;;;5082554;28;43477;-75
2022/01/30 10:24:49;;;;;;;;;;;19.50;42.00;;;;;;5084132;28;42952;-75
2022/01/30 10:27:22;;;;;;;;;;;19.30;42.20;;;;;;5084211;27;43168;-75
2022/01/30 10:29:58;;;;;;;;;;;19.20;42.80;;;;;;5083530;27;42999;-74
2022/01/30 10:32:24;;;;;;;;;;;19.10;42.80;;;;;;5084078;27;43974;-75
2022/01/30 10:34:57;;;;;;;;;;;19.10;43.00;;;;;;5078306;27;42850;-75
2022/01/30 10:37:24;;;;;;;;;;;19.00;43.00;;;;;;5064009;28;42878;-77
2022/01/30 10:39:53;;;;;;;;;;;19.00;43.30;;;;;;5064519;28;43603;-77
2022/01/30 10:42:30;;;;;;;;;;;19.00;43.40;;;;;;5063554;28;43617;-75
2022/01/30 10:44:56;;;;;;;;;;;19.00;43.50;;;;;;5063953;28;43104;-77
2022/01/30 10:47:22;;;;;;;;;;;19.00;43.50;;;;;;5063412;28;43318;-76
2022/01/30 10:49:47;;;;;;;;;;;18.90;43.40;;;;;;5079749;28;43000;-78
2022/01/30 10:52:13;;;;;;;;;;;18.90;43.60;;;;;;5064382;28;43003;-75
2022/01/30 10:54:39;;;;;;;;;;;18.90;43.50;;;;;;5064311;28;42994;-76
2022/01/30 10:57:12;;;;;;;;;;;18.90;43.60;;;;;;5074723;28;43063;-76
2022/01/30 10:59:42;;;;;;;;;;;18.90;43.70;;;;;;5084609;27;42952;-73
2022/01/30 11:02:15;;;;;;;;;;;18.90;43.60;;;;;;5084581;28;42913;-75
2022/01/30 11:04:40;;;;;;;;;;;18.90;43.70;;;;;;5084411;28;43102;-76
2022/01/30 11:07:06;;;;;;;;;;;18.90;43.60;;;;;;5084023;27;43414;-74
2022/01/30 11:09:40;;;;;;;;;;;18.90;43.80;;;;;;5084515;27;42841;-75
2022/01/30 11:12:17;;;;;;;;;;;18.90;43.90;;;;;;5083515;27;42980;-77
2022/01/30 11:17:16;;;;;;;;;;;18.90;43.80;;;;;;5065006;28;43300;-76
2022/01/30 11:19:42;;;;;;;;;;;18.90;44.00;;;;;;5067154;28;43027;-76
2022/01/30 11:22:15;;;;;;;;;;;18.90;43.80;;;;;;5067100;28;42848;-75
2022/01/30 11:24:53;;;;;;;;;;;18.90;43.90;;;;;;5083852;27;43030;-75
2022/01/30 11:27:20;;;;;;;;;;;19.00;44.10;;;;;;5086660;27;43193;-74
2022/01/30 11:29:46;;;;;;;;;;;18.90;44.00;;;;;;5086816;27;42865;-75
2022/01/30 11:32:12;;;;;;;;;;;18.90;44.10;;;;;;5087218;28;43022;-76
2022/01/30 11:34:38;;;;;;;;;;;18.90;44.20;;;;;;5087894;27;43181;-76
2022/01/30 11:37:05;;;;;;;;;;;18.90;44.10;;;;;;5086528;28;42998;-76
2022/01/30 11:39:31;;;;;;;;;;;18.90;44.20;;;;;;5086110;27;43055;-75
2022/01/30 11:42:09;;;;;;;;;;;18.90;44.10;;;;;;5086742;27;42933;-77
2022/01/30 11:44:34;;;;;;;;;;;18.90;44.40;;;;;;5087184;27;42988;-76
2022/01/30 11:47:03;;;;;;;;;;;19.00;44.10;;;;;;5087228;27;43689;-76
2022/01/30 11:49:52;;;;;;;;;;;19.00;44.90;;;;;;5087167;27;42893;-76
2022/01/30 11:52:18;;;;;;;;;;;19.10;44.70;;;;;;5087279;27;42811;-76
2022/01/30 11:54:53;;;;;;;;;;;19.10;44.50;;;;;;5087474;27;42881;-76
2022/01/30 11:57:21;;;;;;;;;;;19.10;45.20;;;;;;5087044;27;42929;-76
2022/01/30 11:59:51;;;;;;;;;;;19.10;45.50;;;;;;5087668;27;42881;-73
2022/01/30 12:02:23;;;;;;;;;;;19.10;45.10;;;;;;5087506;27;42856;-74
2022/01/30 12:04:56;;;;;;;;;;;19.00;45.70;;;;;;5087620;27;42805;-74
2022/01/30 12:07:33;;;;;;;;;;;19.00;45.60;;;;;;5087055;27;42861;-74
2022/01/30 12:10:19;;;;;;;;;;;19.00;45.60;;;;;;5086881;27;42976;-74
2022/01/30 12:12:51;;;;;;;;;;;19.10;45.10;;;;;;5081865;27;42867;-73
2022/01/30 12:15:36;;;;;;;;;;;19.00;45.60;;;;;;5087217;27;42967;-76
2022/01/30 12:18:03;;;;;;;;;;;19.00;44.90;;;;;;5087127;27;42837;-76
2022/01/30 12:20:30;;;;;;;;;;;19.10;45.50;;;;;;5087190;27;42929;-77
2022/01/30 12:22:56;;;;;;;;;;;19.10;45.60;;;;;;5077922;27;43011;-76
2022/01/30 12:25:33;;;;;;;;;;;19.10;45.60;;;;;;5066515;28;43057;-73
2022/01/30 12:28:01;;;;;;;;;;;19.00;44.70;;;;;;5065767;28;43936;-77
2022/01/30 12:30:37;;;;;;;;;;;19.00;45.50;;;;;;5066743;28;42929;-74
2022/01/30 12:33:23;;;;;;;;;;;19.10;45.00;;;;;;5065708;28;43696;-73
2022/01/30 12:35:48;;;;;;;;;;;19.10;44.90;;;;;;5065727;28;42889;-73
2022/01/30 12:38:14;;;;;;;;;;;19.10;45.10;;;;;;5066309;28;42905;-75
2022/01/30 12:40:44;;;;;;;;;;;19.10;45.20;;;;;;5066198;28;42952;-76
2022/01/30 12:43:09;;;;;;;;;;;19.10;45.30;;;;;;5066197;28;43028;-75
2022/01/30 12:45:35;;;;;;;;;;;19.10;45.40;;;;;;5067383;28;43030;-76
2022/01/30 12:48:02;;;;;;;;;;;19.10;45.40;;;;;;5065143;28;42921;-76
2022/01/30 12:50:32;;;;;;;;;;;19.10;45.30;;;;;;5065786;28;42961;-76
2022/01/30 12:52:57;;;;;;;;;;;19.10;45.40;;;;;;5066048;28;42888;-76
2022/01/30 12:55:23;;;;;;;;;;;19.10;44.80;;;;;;5066103;28;43001;-76
2022/01/30 12:57:51;;;;;;;;;;;19.10;45.40;;;;;;5082987;28;42901;-76
2022/01/30 13:00:17;;;;;;;;;;;19.10;45.40;;;;;;5086707;27;42857;-76
2022/01/30 13:02:55;;;;;;;;;;;19.10;45.30;;;;;;5085900;28;43712;-76
2022/01/30 13:05:20;;;;;;;;;;;19.10;45.30;;;;;;5086195;27;42860;-76
2022/01/30 13:07:56;;;;;;;;;;;19.10;45.40;;;;;;5086146;27;43526;-76
2022/01/30 13:10:22;;;;;;;;;;;19.10;45.40;;;;;;5086096;27;42895;-77
2022/01/30 13:12:48;;;;;;;;;;;19.10;45.10;;;;;;5085348;27;43551;-76
2022/01/30 13:15:23;;;;;;;;;;;19.10;45.20;;;;;;5085820;27;42983;-76
2022/01/30 13:17:49;;;;;;;;;;;19.10;45.30;;;;;;5085818;27;43004;-77
2022/01/30 13:20:15;;;;;;;;;;;19.10;45.10;;;;;;5086139;27;42770;-76
2022/01/30 13:22:43;;;;;;;;;;;19.10;45.20;;;;;;5085572;27;43100;-76
2022/01/30 13:25:14;;;;;;;;;;;19.10;45.40;;;;;;5085705;27;42815;-77
2022/01/30 13:27:41;;;;;;;;;;;19.10;45.20;;;;;;5085761;28;42888;-75
2022/01/30 13:30:07;;;;;;;;;;;19.10;45.20;;;;;;5085795;28;42877;-73
2022/01/30 13:32:35;;;;;;;;;;;19.10;45.30;;;;;;5085147;27;43634;-76
2022/01/30 13:35:02;;;;;;;;;;;19.10;45.20;;;;;;5085421;28;42947;-75
2022/01/30 13:37:36;;;;;;;;;;;19.10;45.10;;;;;;5085295;27;42921;-74
2022/01/30 13:40:09;;;;;;;;;;;19.10;45.20;;;;;;5084257;27;42995;-75
2022/01/30 13:48:04;;;;;;;;;;;19.10;45.20;;;;;;5085049;28;42866;-73
2022/01/30 13:50:38;;;;;;;;;;;19.10;45.20;;;;;;5085417;27;42932;-76
2022/01/30 13:53:03;;;;;;;;;;;19.10;45.00;;;;;;5085667;28;43078;-74
2022/01/30 13:55:29;;;;;;;;;;;19.10;44.80;;;;;;5085531;27;42971;-76
2022/01/30 13:57:57;;;;;;;;;;;19.10;45.00;;;;;;5084944;27;42918;-76
2022/01/30 14:00:23;;;;;;;;;;;19.10;45.20;;;;;;5085472;28;43533;-74
2022/01/30 14:02:53;;;;;;;;;;;19.10;45.10;;;;;;5085308;27;42807;-73
2022/01/30 14:05:24;;;;;;;;;;;19.10;45.20;;;;;;5084608;27;42864;-76
2022/01/30 14:07:51;;;;;;;;;;;19.10;44.90;;;;;;5083216;28;44769;-74
2022/01/30 14:10:17;;;;;;;;;;;19.10;45.00;;;;;;5085223;27;42955;-74
2022/01/30 14:12:43;;;;;;;;;;;20.80;46.00;;;;;;5086006;27;43719;-74
2022/01/30 14:15:12;;;;;;;;;;;19.20;45.20;;;;;;5085135;28;42901;-75
2022/01/30 14:17:41;;;;;;;;;;;19.10;45.10;;;;;;5084947;27;43533;-76
2022/01/30 14:20:09;;;;;;;;;;;19.10;45.20;;;;;;5085018;27;42876;-76
2022/01/30 14:22:35;;;;;;;;;;;19.10;44.50;;;;;;5085018;28;43402;-76
2022/01/30 14:25:03;;;;;;;;;;;19.10;44.80;;;;;;5085155;27;43074;-73
2022/01/30 14:27:33;;;;;;;;;;;19.10;45.10;;;;;;5083886;27;42948;-73
2022/01/30 14:30:01;;;;;;;;;;;19.10;45.10;;;;;;5084612;27;42946;-74
2022/01/30 14:32:34;;;;;;;;;;;19.20;44.90;;;;;;5085143;27;43833;-76
2022/01/30 14:35:02;;;;;;;;;;;19.20;44.50;;;;;;5084653;27;42971;-74
2022/01/30 14:37:28;;;;;;;;;;;19.20;45.10;;;;;;5084180;27;43600;-74
2022/01/30 14:40:16;;;;;;;;;;;19.20;44.80;;;;;;5083641;27;43043;-76
2022/01/30 14:42:41;;;;;;;;;;;19.10;44.50;;;;;;5085045;28;43007;-76
2022/01/30 14:45:07;;;;;;;;;;;19.20;45.00;;;;;;5084356;27;42858;-72
2022/01/30 14:47:32;;;;;;;;;;;19.20;44.90;;;;;;5084521;27;42953;-75
2022/01/30 14:49:58;;;;;;;;;;;19.20;44.70;;;;;;5084379;27;43014;-75
2022/01/30 14:52:24;;;;;;;;;;;19.20;45.20;;;;;;5088275;27;43828;-75
2022/01/30 14:54:49;;;;;;;;;;;19.20;44.80;;;;;;5088133;27;42987;-76
2022/01/30 14:57:15;;;;;;;;;;;19.20;44.90;;;;;;5088184;27;42942;-76
2022/01/30 14:59:41;;;;;;;;;;;19.20;45.00;;;;;;5086685;28;42982;-76
2022/01/30 15:02:06;;;;;;;;;;;19.20;44.70;;;;;;5088193;28;42874;-77
2022/01/30 15:04:34;;;;;;;;;;;19.20;44.80;;;;;;5087872;27;42892;-76
2022/01/30 15:06:59;;;;;;;;;;;19.20;45.00;;;;;;5087351;27;44518;-74
2022/01/30 15:09:25;;;;;;;;;;;19.20;44.90;;;;;;5087559;27;43011;-74
2022/01/30 15:11:50;;;;;;;;;;;19.20;44.90;;;;;;5088012;28;42774;-74
2022/01/30 15:14:22;;;;;;;;;;;19.20;44.80;;;;;;5088219;27;43044;-73
2022/01/30 15:16:49;;;;;;;;;;;19.20;44.80;;;;;;5088245;27;42776;-73
2022/01/30 15:19:15;;;;;;;;;;;19.20;45.40;;;;;;5087676;27;42921;-73
2022/01/30 15:21:41;;;;;;;;;;;19.20;45.10;;;;;;5088409;27;42974;-75
2022/01/30 15:24:07;;;;;;;;;;;19.20;44.80;;;;;;5088821;28;42932;-76